Latest Coastal Weather Observations for Kennaook / Cape Grim

IDV60701

Issued at 7:52 pm EST Monday 4 May 2026 (issued every 10 minutes, with the page automatically refreshed every 10 minutes)

About coastal observations | Map of coastal stations | Coastal observations for VIC | Marine services | Other Formats
Station Details ID: 091331 Name: KENNAOOK/CAPE GRIM Lat: -40.68 Lon: 144.69 Height: 86.0 m
Data from the previous 72 hours. | See also: Recent months at Kennaook / Cape Grim
Date/Time
EST
Wind Sea
Height
m
Swell Vis
km
Cloud Weather Temp
°C
Press
MSL
hPa
Rain since
9am
mm
Dir  Spd
kts
Gust
kts
Height
m
Period
s
Dir
04/07:30pm NNE 15 25 - - - - - Partly cloudy - 13.5 1005.4 0.4
04/07:28pm NNE 14 25 - - - - - Partly cloudy - 13.7 1005.4 0.4
04/07:00pm NE 11 13 - - - - - Partly cloudy - 13.1 1005.4 0.4
04/06:33pm N 19 30 - - - - - Mostly clear - 13.6 1005.5 0.2
04/06:30pm N 22 30 - - - - - Mostly clear - 13.5 1005.5 0.2
04/06:21pm NNE 18 28 - - - - - Partly cloudy - 15.1 1005.2 0.2
04/06:00pm NNE 15 18 - - - - - Cloudy - 15.0 1005.2 0.2
04/05:30pm NNE 14 17 - - - - - Mostly clear - 14.6 1005.3 0.2
04/05:00pm N 17 21 - - - - - Cloudy - 14.6 1005.4 0.2
04/04:30pm N 16 21 - - - - - Partly cloudy - 15.1 1005.4 0.2
04/04:00pm N 16 21 - - - - - Cloudy - 15.1 1005.5 0.2
04/03:30pm N 19 24 - - - - - Mostly clear - 14.9 1005.7 0.2
04/03:00pm N 20 24 - - - - - Cloudy - 14.7 1005.8 0.2
04/02:30pm N 21 26 - - - - - Partly cloudy - 14.7 1005.9 0.2
04/02:00pm N 19 25 - - - - - Mostly clear - 14.3 1006.2 0.2
04/01:30pm N 19 25 - - - - - Mostly clear - 13.7 1006.5 0.2
04/01:07pm N 22 32 - - - - - Mostly clear - 14.2 1006.6 0.2
04/01:00pm N 21 27 - - - - - Mostly clear - 14.9 1006.7 0.2
04/12:30pm N 21 26 - - - - - Mostly clear - 16.3 1006.9 0.2
04/12:00pm N 20 27 - - - - - Cloudy - 16.1 1007.4 0.2
04/11:30am N 20 25 - - - - - - - 16.6 1007.8 0.2
04/11:00am N 21 27 - - - - - Mostly clear - 16.6 1007.9 0.2
04/10:30am N 22 27 - - - - - - - 15.9 1007.7 0.2
04/10:00am N 20 26 - - - - - Mostly clear - 15.9 1007.7 0.0
04/09:30am N 19 24 - - - - - Mostly clear - 15.2 1008.0 0.0
04/09:00am N 19 25 - - - - - - - 15.5 1008.0 11.4
04/08:30am N 17 21 - - - - - - - 15.0 1008.1 11.4
04/08:00am N 17 22 - - - - - Mostly clear - 14.7 1008.1 11.4
04/07:30am N 17 22 - - - - - - - 14.4 1007.9 11.4
04/07:00am N 17 21 - - - - - - - 14.3 1007.8 11.4
04/06:30am N 16 19 - - - - - - - 14.3 1007.9 11.4
04/06:00am N 16 20 - - - - - Mostly clear - 14.3 1008.0 11.4
04/05:30am N 16 21 - - - - - - - 14.4 1008.3 11.4
04/05:00am N 16 20 - - - - - - - 14.6 1008.2 11.4
04/04:30am N 16 19 - - - - - - - 14.6 1008.3 11.4
04/04:00am N 15 18 - - - - - - - 14.6 1008.4 11.4
04/03:30am N 15 19 - - - - - - - 14.8 1008.5 11.4
04/03:00am N 14 18 - - - - - - - 14.7 1008.9 11.4
04/02:30am N 13 16 - - - - - - - 14.9 1009.1 11.4
04/02:00am NNW 13 17 - - - - - - - 15.2 1009.3 11.4
04/01:30am N 15 21 - - - - - - - 15.2 1009.4 11.4
04/01:00am N 12 16 - - - - - Partly cloudy - 14.7 1009.4 11.4
04/12:30am N 13 16 - - - - - - - 14.4 1009.5 11.4
04/12:00am N 13 17 - - - - - Mostly clear - 14.0 1009.5 11.4
 
Date/Time
EST
Wind Sea
Height
m
Swell Vis
km
Cloud Weather Temp
°C
Press
MSL
hPa
Rain since
9am
mm
Dir  Spd
kts
Gust
kts
Height
m
Period
s
Dir
03/11:30pm NE 11 14 - - - - - Mostly clear - 13.3 1009.6 11.4
03/11:00pm NE 10 12 - - - - - Partly cloudy - 13.0 1009.9 11.4
03/10:30pm NE 10 12 - - - - - - - 12.7 1010.2 11.4
03/10:00pm NE 10 12 - - - - - - - 12.5 1010.5 11.4
03/09:30pm NE 11 12 - - - - - - - 12.5 1010.4 11.4
03/09:00pm NNE 10 11 - - - - - - - 12.5 1010.6 11.4
03/08:30pm ENE 7 8 - - - - - - - 12.4 1010.4 11.4
03/08:00pm NE 6 7 - - - - - - - 12.7 1010.2 11.4
03/07:30pm N 7 9 - - - - - - - 13.0 1010.1 11.4
03/07:00pm NNW 8 10 - - - - - - - 13.9 1010.0 11.4
03/06:30pm NW 9 11 - - - - - - - 14.2 1009.7 11.4
03/06:00pm NW 10 15 - - - - - - - 14.1 1009.3 11.4
03/05:30pm NW 8 10 - - - - - - - 14.1 1008.8 11.4
03/05:00pm NW 12 15 - - - - - - - 14.5 1008.7 11.4
03/04:30pm WNW 11 14 - - - - - Mostly clear - 15.0 1008.9 11.4
03/04:00pm NW 13 18 - - - - - Partly cloudy - 14.9 1008.8 11.4
03/03:47pm NW 13 18 - - - - - Cloudy - 14.5 1008.6 11.4
03/03:30pm NW 16 19 - - - - - Mostly clear - 14.1 1008.5 11.4
03/03:05pm NNW 23 31 - - - - - Mostly clear - 14.8 1008.4 11.4
03/03:03pm N 24 31 - - - - - Mostly clear - 15.0 1008.3 11.4
03/03:00pm N 24 31 - - - - - Mostly cloudy - 16.4 1007.8 11.4
03/02:30pm NNE 20 26 - - - - - Partly cloudy - 16.5 1007.6 11.4
03/02:12pm NNE 22 29 - - - - - Partly cloudy - 16.3 1007.7 11.4
03/02:00pm NNE 22 29 - - - - - Partly cloudy - 16.2 1007.8 11.4
03/01:49pm NNE 18 23 - - - - - Partly cloudy - 16.0 1007.9 11.4
03/01:30pm NNE 17 23 - - - - - Mostly clear - 15.7 1008.4 11.4
03/01:07pm NNE 19 22 - - - - - Mostly clear - 15.6 1008.5 10.8
03/01:00pm NNE 20 24 - - - - - Partly cloudy - 15.7 1008.3 10.6
03/12:30pm N 22 27 - - - - - Partly cloudy - 15.8 1009.3 8.4
03/12:09pm N 25 33 - - - - - Partly cloudy - 15.9 1009.4 6.2
03/12:08pm N 25 33 - - - - - Partly cloudy - 15.9 1009.4 6.2
03/12:01pm NNE 21 33 - - - - - Mostly clear - 16.0 1009.3 5.2
03/12:00pm NNE 21 27 - - - - - Cloudy Thunderstorm 16.0 1009.3 5.2
03/11:59am NNE 20 27 - - - - - Mostly clear - 16.0 1009.3 5.0
03/11:40am NE 19 23 - - - - - Partly cloudy - 16.1 1009.2 1.0
03/11:30am ENE 19 24 - - - - - Cloudy - 16.1 1009.0 0.4
03/11:00am ENE 19 24 - - - - - Partly cloudy - 16.2 1009.7 0.2
03/10:30am ENE 21 26 - - - - - Mostly clear - 16.4 1010.0 0.0
03/10:00am ENE 21 27 - - - - - Mostly clear - 16.1 1010.3 0.0
03/09:30am ENE 20 25 - - - - - Partly cloudy - 16.1 1010.6 0.0
03/09:00am NE 21 26 - - - - - Cloudy Recent precip. 15.8 1010.8 7.0
03/08:30am NE 18 23 - - - - - Partly cloudy - 15.6 1011.2 7.0
03/08:00am NE 18 22 - - - - - Partly cloudy - 15.4 1011.8 6.8
03/07:30am NE 19 24 - - - - - Mostly clear - 15.5 1011.9 6.0
03/07:00am ENE 19 22 - - - - - Mostly clear - 15.5 1011.8 5.2
03/06:30am ENE 18 23 - - - - - Mostly clear - 15.5 1011.4 4.4
03/06:00am ENE 18 22 - - - - - Cloudy Rain 15.6 1011.9 2.6
03/05:30am ENE 17 22 - - - - - Partly cloudy - 15.7 1011.8 2.2
03/05:00am NE 13 17 - - - - - Partly cloudy - 15.8 1012.0 2.0
03/04:30am NE 15 17 - - - - - Partly cloudy - 15.7 1012.2 1.8
03/04:00am NE 17 22 - - - - - Cloudy - 15.8 1012.2 1.2
03/03:30am NE 17 20 - - - - - Cloudy - 16.0 1012.3 0.6
03/03:00am NE 14 17 - - - - - Cloudy Recent precip. 16.0 1012.5 0.6
03/02:30am NE 16 20 - - - - - Partly cloudy - 15.9 1012.9 0.6
03/02:00am NNE 19 23 - - - - - Partly cloudy - 16.5 1013.2 0.2
03/01:30am NE 15 19 - - - - - Cloudy - 16.8 1013.1 0.2
03/01:00am NE 19 24 - - - - - Partly cloudy - 17.2 1013.1 0.2
03/12:30am NE 18 24 - - - - - Partly cloudy - 16.8 1013.4 0.2
03/12:00am NNE 16 19 - - - - - Cloudy - 16.6 1013.7 0.0
 
Date/Time
EST
Wind Sea
Height
m
Swell Vis
km
Cloud Weather Temp
°C
Press
MSL
hPa
Rain since
9am
mm
Dir  Spd
kts
Gust
kts
Height
m
Period
s
Dir
02/11:30pm NNE 19 22 - - - - - Mostly clear - 17.3 1014.0 0.0
02/11:00pm N 18 22 - - - - - Cloudy - 17.8 1014.2 0.0
02/10:30pm N 22 28 - - - - - Partly cloudy - 18.0 1014.4 0.0
02/10:00pm NNE 26 31 - - - - - Mostly clear - 19.5 1014.1 0.0
02/09:43pm NNE 21 31 - - - - - Partly cloudy - 19.2 1013.9 0.0
02/09:30pm NNE 20 24 - - - - - Cloudy - 18.5 1014.0 0.0
02/09:00pm NE 15 19 - - - - - Cloudy - 17.5 1014.0 0.0
02/08:30pm ENE 18 22 - - - - - Partly cloudy - 17.8 1013.9 0.0
02/08:00pm NE 19 24 - - - - - Partly cloudy - 18.0 1014.0 0.0
02/07:30pm NE 17 24 - - - - - Partly cloudy - 17.8 1014.2 0.0
02/07:00pm E 16 18 - - - - - Partly cloudy - 16.2 1014.3 0.0
02/06:30pm ENE 15 18 - - - - - - - 16.6 1014.0 0.0
02/06:00pm NE 15 21 - - - - - - - 16.8 1013.6 0.0
02/05:30pm NE 14 17 - - - - - - - 17.1 1013.6 0.0
02/05:00pm NE 15 21 - - - - - Mostly clear - 17.9 1013.7 0.0
02/04:30pm NNE 17 23 - - - - - Partly cloudy - 19.9 1013.8 0.0
02/04:00pm NNE 21 28 - - - - - Mostly clear - 20.6 1014.0 0.0
02/03:30pm NNE 22 27 - - - - - Cloudy - 20.2 1014.1 0.0
02/03:10pm NNE 21 31 - - - - - Mostly clear - 19.4 1014.1 0.0
02/03:00pm NNE 22 27 - - - - - Cloudy - 19.5 1014.1 0.0
02/02:30pm NE 15 24 - - - - - Mostly clear - 18.3 1014.6 0.0
02/02:00pm NE 13 18 - - - - - Partly cloudy - 18.0 1015.0 0.0
02/01:30pm NE 15 19 - - - - - Cloudy - 18.1 1015.1 0.0
02/01:00pm NE 15 19 - - - - - Mostly clear - 18.9 1015.6 0.0
02/12:30pm NE 14 17 - - - - - Cloudy - 18.7 1016.2 0.0
02/12:00pm NE 14 22 - - - - - Mostly cloudy - 19.9 1016.6 0.0
02/11:30am ENE 17 23 - - - - - Cloudy - 19.5 1016.9 0.0
02/11:00am ENE 18 27 - - - - - Partly cloudy - 19.5 1017.2 0.0
02/10:30am NE 15 19 - - - - - Cloudy - 19.2 1017.6 0.0
02/10:00am NE 17 21 - - - - - Partly cloudy - 19.5 1017.8 0.0
02/09:30am ENE 18 23 - - - - - Cloudy - 18.3 1017.9 0.0
02/09:00am ENE 18 23 - - - - - Mostly cloudy - 17.8 1018.2 0.0
02/08:30am ENE 18 23 - - - - - Cloudy - 17.8 1018.3 0.0
02/08:00am E 17 22 - - - - - Cloudy - 17.0 1018.1 0.0
02/07:30am E 18 21 - - - - - Cloudy - 17.4 1017.7 0.0
02/07:00am E 17 19 - - - - - Cloudy - 16.2 1017.8 0.0
02/06:30am E 13 15 - - - - - Partly cloudy - 16.2 1017.8 0.0
02/06:00am NE 15 17 - - - - - Mostly cloudy - 18.3 1017.7 0.0
02/05:30am NE 18 23 - - - - - Partly cloudy - 18.8 1017.8 0.0
02/05:00am NNE 17 21 - - - - - Partly cloudy - 18.4 1017.7 0.0
02/04:30am NNE 15 19 - - - - - Cloudy - 18.2 1017.8 0.0
02/04:00am NNE 18 21 - - - - - Partly cloudy - 18.2 1017.9 0.0
02/03:30am NNE 17 20 - - - - - Cloudy - 18.3 1018.1 0.0
02/03:00am NNE 14 18 - - - - - Cloudy - 18.1 1018.4 0.0
02/02:30am NNE 17 19 - - - - - Cloudy - 18.0 1018.6 0.0
02/02:00am NNE 17 21 - - - - - Partly cloudy - 18.2 1018.8 0.0
02/01:30am NNE 21 28 - - - - - Partly cloudy - 19.6 1019.0 0.0
02/01:00am NNE 21 26 - - - - - Mostly clear - 19.2 1019.2 0.0
02/12:30am NNE 23 28 - - - - - Partly cloudy - 19.9 1019.5 0.0
02/12:00am NNE 21 26 - - - - - Cloudy - 20.2 1019.7 0.0
 
Date/Time
EST
Wind Sea
Height
m
Swell Vis
km
Cloud Weather Temp
°C
Press
MSL
hPa
Rain since
9am
mm
Dir  Spd
kts
Gust
kts
Height
m
Period
s
Dir
01/11:30pm NNE 20 25 - - - - - Partly cloudy - 19.5 1019.8 0.0
01/11:00pm NNE 17 21 - - - - - Cloudy - 18.7 1020.2 0.0
01/10:30pm NE 13 16 - - - - - Partly cloudy - 17.3 1020.6 0.0
01/10:00pm ENE 13 18 - - - - - Cloudy - 17.0 1020.8 0.0
01/09:30pm ENE 12 16 - - - - - Partly cloudy - 16.7 1020.9 0.0
01/09:00pm ENE 12 15 - - - - - Partly cloudy - 16.6 1020.9 0.0
01/08:30pm ENE 12 16 - - - - - Partly cloudy - 17.4 1020.9 0.0
01/08:00pm NNE 14 17 - - - - - Mostly clear - 18.0 1020.8 0.0

Other formats

Comma delimited format used in spreadsheet applications
http://www.bom.gov.au/fwo/IDV60701/IDV60701.95954.axf

JavaScript Object Notation format (JSON) in row-major order
http://www.bom.gov.au/fwo/IDV60701/IDV60701.95954.json

Data quality

Most of these data are generated automatically and are frequently updated. Quality checks on data are not normally performed. It is possible for incorrect values to appear. Refer to information at About Latest Weather Observations and please check the disclaimer before using these data.